sensor_id;sensor_type;location;lat;lon;timestamp;P1;durP1;ratioP1;P2;durP2;ratioP2
55815;SDS011;41744;52.404;16.942;2023-03-19T00:01:27;81.83;;;30.10;;
55815;SDS011;41744;52.404;16.942;2023-03-19T00:03:53;86.57;;;31.10;;
55815;SDS011;41744;52.404;16.942;2023-03-19T00:06:20;86.30;;;30.93;;
55815;SDS011;41744;52.404;16.942;2023-03-19T00:08:47;80.60;;;30.10;;
55815;SDS011;41744;52.404;16.942;2023-03-19T00:11:13;90.20;;;29.63;;
55815;SDS011;41744;52.404;16.942;2023-03-19T00:13:39;92.83;;;29.50;;
55815;SDS011;41744;52.404;16.942;2023-03-19T00:16:05;93.37;;;31.73;;
55815;SDS011;41744;52.404;16.942;2023-03-19T00:18:31;108.17;;;33.57;;
55815;SDS011;41744;52.404;16.942;2023-03-19T00:20:58;110.57;;;37.80;;
55815;SDS011;41744;52.404;16.942;2023-03-19T00:23:24;106.37;;;37.80;;
55815;SDS011;41744;52.404;16.942;2023-03-19T00:25:52;117.33;;;38.27;;
55815;SDS011;41744;52.404;16.942;2023-03-19T00:28:19;113.37;;;36.70;;
55815;SDS011;41744;52.404;16.942;2023-03-19T00:30:45;111.33;;;36.90;;
55815;SDS011;41744;52.404;16.942;2023-03-19T00:33:11;105.57;;;38.70;;
55815;SDS011;41744;52.404;16.942;2023-03-19T00:35:38;109.97;;;38.03;;
55815;SDS011;41744;52.404;16.942;2023-03-19T00:38:04;108.80;;;37.73;;
55815;SDS011;41744;52.404;16.942;2023-03-19T00:40:30;114.27;;;39.67;;
55815;SDS011;41744;52.404;16.942;2023-03-19T00:42:57;122.50;;;39.40;;
55815;SDS011;41744;52.404;16.942;2023-03-19T00:45:24;114.87;;;39.93;;
55815;SDS011;41744;52.404;16.942;2023-03-19T00:47:50;117.83;;;40.03;;
55815;SDS011;41744;52.404;16.942;2023-03-19T00:50:16;111.83;;;39.10;;
55815;SDS011;41744;52.404;16.942;2023-03-19T00:52:42;103.10;;;35.93;;
55815;SDS011;41744;52.404;16.942;2023-03-19T00:55:08;104.20;;;36.47;;
55815;SDS011;41744;52.404;16.942;2023-03-19T00:57:34;100.73;;;37.67;;
55815;SDS011;41744;52.404;16.942;2023-03-19T01:00:00;109.23;;;36.40;;
55815;SDS011;41744;52.404;16.942;2023-03-19T01:02:27;106.93;;;35.60;;
55815;SDS011;41744;52.404;16.942;2023-03-19T01:04:53;102.30;;;34.63;;
55815;SDS011;41744;52.404;16.942;2023-03-19T01:07:19;107.73;;;35.40;;
55815;SDS011;41744;52.404;16.942;2023-03-19T01:09:45;98.60;;;35.20;;
55815;SDS011;41744;52.404;16.942;2023-03-19T01:12:11;109.80;;;36.57;;
55815;SDS011;41744;52.404;16.942;2023-03-19T01:14:37;105.93;;;34.83;;
55815;SDS011;41744;52.404;16.942;2023-03-19T01:17:03;96.83;;;33.60;;
55815;SDS011;41744;52.404;16.942;2023-03-19T01:19:29;91.23;;;31.67;;
55815;SDS011;41744;52.404;16.942;2023-03-19T01:21:55;100.20;;;32.90;;
55815;SDS011;41744;52.404;16.942;2023-03-19T01:24:22;91.20;;;31.97;;
55815;SDS011;41744;52.404;16.942;2023-03-19T01:26:48;92.67;;;30.23;;
55815;SDS011;41744;52.404;16.942;2023-03-19T01:29:14;85.90;;;28.07;;
55815;SDS011;41744;52.404;16.942;2023-03-19T01:31:40;70.40;;;27.40;;
55815;SDS011;41744;52.404;16.942;2023-03-19T01:34:09;79.43;;;27.77;;
55815;SDS011;41744;52.404;16.942;2023-03-19T01:36:36;74.17;;;26.73;;
55815;SDS011;41744;52.404;16.942;2023-03-19T01:39:02;77.00;;;26.83;;
55815;SDS011;41744;52.404;16.942;2023-03-19T01:41:28;79.53;;;27.57;;
55815;SDS011;41744;52.404;16.942;2023-03-19T01:43:55;76.50;;;27.37;;
55815;SDS011;41744;52.404;16.942;2023-03-19T01:48:47;80.57;;;27.50;;
55815;SDS011;41744;52.404;16.942;2023-03-19T01:51:15;74.60;;;26.33;;
55815;SDS011;41744;52.404;16.942;2023-03-19T01:53:44;68.63;;;26.40;;
55815;SDS011;41744;52.404;16.942;2023-03-19T01:56:12;84.80;;;27.63;;
55815;SDS011;41744;52.404;16.942;2023-03-19T01:58:39;77.13;;;26.33;;
55815;SDS011;41744;52.404;16.942;2023-03-19T02:01:06;81.23;;;26.27;;
55815;SDS011;41744;52.404;16.942;2023-03-19T02:06:08;79.13;;;26.97;;
55815;SDS011;41744;52.404;16.942;2023-03-19T02:08:36;85.87;;;26.90;;
55815;SDS011;41744;52.404;16.942;2023-03-19T02:11:03;76.80;;;27.93;;
55815;SDS011;41744;52.404;16.942;2023-03-19T02:13:29;83.67;;;27.70;;
55815;SDS011;41744;52.404;16.942;2023-03-19T02:15:56;78.43;;;27.33;;
55815;SDS011;41744;52.404;16.942;2023-03-19T02:18:22;75.13;;;26.37;;
55815;SDS011;41744;52.404;16.942;2023-03-19T02:20:51;72.23;;;26.27;;
55815;SDS011;41744;52.404;16.942;2023-03-19T02:23:25;78.13;;;28.20;;
55815;SDS011;41744;52.404;16.942;2023-03-19T02:28:21;81.33;;;27.20;;
55815;SDS011;41744;52.404;16.942;2023-03-19T02:30:48;81.70;;;26.53;;
55815;SDS011;41744;52.404;16.942;2023-03-19T02:33:16;75.73;;;26.53;;
55815;SDS011;41744;52.404;16.942;2023-03-19T02:35:44;82.77;;;28.27;;
55815;SDS011;41744;52.404;16.942;2023-03-19T02:38:11;82.03;;;26.90;;
55815;SDS011;41744;52.404;16.942;2023-03-19T02:40:40;86.03;;;26.70;;
55815;SDS011;41744;52.404;16.942;2023-03-19T02:43:08;80.17;;;27.70;;
55815;SDS011;41744;52.404;16.942;2023-03-19T02:45:34;80.70;;;27.30;;
55815;SDS011;41744;52.404;16.942;2023-03-19T02:48:01;89.17;;;28.77;;
55815;SDS011;41744;52.404;16.942;2023-03-19T02:50:27;73.43;;;26.80;;
55815;SDS011;41744;52.404;16.942;2023-03-19T02:52:54;75.70;;;27.83;;
55815;SDS011;41744;52.404;16.942;2023-03-19T02:55:20;83.13;;;28.50;;
55815;SDS011;41744;52.404;16.942;2023-03-19T02:57:46;87.93;;;29.10;;
55815;SDS011;41744;52.404;16.942;2023-03-19T03:00:12;85.70;;;27.63;;
55815;SDS011;41744;52.404;16.942;2023-03-19T03:02:41;86.40;;;26.07;;
55815;SDS011;41744;52.404;16.942;2023-03-19T03:05:07;79.90;;;28.00;;
55815;SDS011;41744;52.404;16.942;2023-03-19T03:07:34;75.57;;;26.03;;
55815;SDS011;41744;52.404;16.942;2023-03-19T03:10:00;79.63;;;27.33;;
55815;SDS011;41744;52.404;16.942;2023-03-19T03:12:26;77.50;;;26.33;;
55815;SDS011;41744;52.404;16.942;2023-03-19T03:14:52;80.57;;;28.33;;
55815;SDS011;41744;52.404;16.942;2023-03-19T03:17:18;74.00;;;26.90;;
55815;SDS011;41744;52.404;16.942;2023-03-19T03:19:45;82.43;;;28.60;;
55815;SDS011;41744;52.404;16.942;2023-03-19T03:22:11;86.10;;;29.17;;
55815;SDS011;41744;52.404;16.942;2023-03-19T03:24:37;80.70;;;30.50;;
55815;SDS011;41744;52.404;16.942;2023-03-19T03:27:04;82.10;;;29.27;;
55815;SDS011;41744;52.404;16.942;2023-03-19T03:29:30;80.47;;;27.70;;
55815;SDS011;41744;52.404;16.942;2023-03-19T03:31:56;79.20;;;28.00;;
55815;SDS011;41744;52.404;16.942;2023-03-19T03:34:22;87.07;;;29.60;;
55815;SDS011;41744;52.404;16.942;2023-03-19T03:36:48;85.93;;;29.90;;
55815;SDS011;41744;52.404;16.942;2023-03-19T03:39:14;78.93;;;29.13;;
55815;SDS011;41744;52.404;16.942;2023-03-19T03:41:40;83.40;;;31.20;;
55815;SDS011;41744;52.404;16.942;2023-03-19T03:44:07;78.00;;;28.27;;
55815;SDS011;41744;52.404;16.942;2023-03-19T03:46:33;86.77;;;29.50;;
55815;SDS011;41744;52.404;16.942;2023-03-19T03:48:59;90.67;;;29.67;;
55815;SDS011;41744;52.404;16.942;2023-03-19T03:51:25;95.43;;;29.63;;
55815;SDS011;41744;52.404;16.942;2023-03-19T03:53:51;78.47;;;27.53;;
55815;SDS011;41744;52.404;16.942;2023-03-19T03:56:17;76.10;;;28.00;;
55815;SDS011;41744;52.404;16.942;2023-03-19T03:58:43;76.80;;;27.47;;
55815;SDS011;41744;52.404;16.942;2023-03-19T04:01:13;91.90;;;28.33;;
55815;SDS011;41744;52.404;16.942;2023-03-19T04:03:39;83.63;;;29.87;;
55815;SDS011;41744;52.404;16.942;2023-03-19T04:06:05;84.77;;;29.47;;
55815;SDS011;41744;52.404;16.942;2023-03-19T04:08:32;77.77;;;27.83;;
55815;SDS011;41744;52.404;16.942;2023-03-19T04:10:58;74.37;;;27.17;;
55815;SDS011;41744;52.404;16.942;2023-03-19T04:13:24;80.53;;;28.20;;
55815;SDS011;41744;52.404;16.942;2023-03-19T04:15:50;81.73;;;29.27;;
55815;SDS011;41744;52.404;16.942;2023-03-19T04:18:18;74.70;;;28.53;;
55815;SDS011;41744;52.404;16.942;2023-03-19T04:20:44;96.60;;;29.93;;
55815;SDS011;41744;52.404;16.942;2023-03-19T04:23:11;71.30;;;27.87;;
55815;SDS011;41744;52.404;16.942;2023-03-19T04:25:38;75.07;;;26.83;;
55815;SDS011;41744;52.404;16.942;2023-03-19T04:28:05;77.67;;;27.37;;
55815;SDS011;41744;52.404;16.942;2023-03-19T04:30:31;65.30;;;25.20;;
55815;SDS011;41744;52.404;16.942;2023-03-19T04:32:57;75.13;;;27.03;;
55815;SDS011;41744;52.404;16.942;2023-03-19T04:35:23;80.13;;;26.93;;
55815;SDS011;41744;52.404;16.942;2023-03-19T04:37:49;75.83;;;26.67;;
55815;SDS011;41744;52.404;16.942;2023-03-19T04:40:15;67.17;;;25.37;;
55815;SDS011;41744;52.404;16.942;2023-03-19T04:42:48;68.47;;;25.20;;
55815;SDS011;41744;52.404;16.942;2023-03-19T04:45:14;74.77;;;25.70;;
55815;SDS011;41744;52.404;16.942;2023-03-19T04:47:40;77.40;;;26.10;;
55815;SDS011;41744;52.404;16.942;2023-03-19T04:50:07;71.77;;;25.10;;
55815;SDS011;41744;52.404;16.942;2023-03-19T04:52:34;73.07;;;25.10;;
55815;SDS011;41744;52.404;16.942;2023-03-19T04:55:01;75.47;;;26.33;;
55815;SDS011;41744;52.404;16.942;2023-03-19T04:57:28;73.97;;;27.37;;
55815;SDS011;41744;52.404;16.942;2023-03-19T04:59:54;71.57;;;25.70;;
55815;SDS011;41744;52.404;16.942;2023-03-19T05:02:20;71.93;;;25.27;;
55815;SDS011;41744;52.404;16.942;2023-03-19T05:04:47;72.57;;;24.43;;
55815;SDS011;41744;52.404;16.942;2023-03-19T05:07:13;75.23;;;25.23;;
55815;SDS011;41744;52.404;16.942;2023-03-19T05:09:41;68.67;;;24.53;;
55815;SDS011;41744;52.404;16.942;2023-03-19T05:12:10;77.50;;;26.80;;
55815;SDS011;41744;52.404;16.942;2023-03-19T05:14:36;65.57;;;24.33;;
55815;SDS011;41744;52.404;16.942;2023-03-19T05:17:03;77.47;;;26.57;;
55815;SDS011;41744;52.404;16.942;2023-03-19T05:19:29;72.27;;;25.73;;
55815;SDS011;41744;52.404;16.942;2023-03-19T05:21:55;74.33;;;25.23;;
55815;SDS011;41744;52.404;16.942;2023-03-19T05:24:25;70.80;;;24.63;;
55815;SDS011;41744;52.404;16.942;2023-03-19T05:26:51;79.33;;;25.47;;
55815;SDS011;41744;52.404;16.942;2023-03-19T05:29:20;71.73;;;25.07;;
55815;SDS011;41744;52.404;16.942;2023-03-19T05:31:46;70.93;;;25.07;;
55815;SDS011;41744;52.404;16.942;2023-03-19T05:34:12;73.60;;;26.03;;
55815;SDS011;41744;52.404;16.942;2023-03-19T05:36:38;77.17;;;25.47;;
55815;SDS011;41744;52.404;16.942;2023-03-19T05:39:04;73.40;;;23.73;;
55815;SDS011;41744;52.404;16.942;2023-03-19T05:41:30;76.30;;;26.50;;
55815;SDS011;41744;52.404;16.942;2023-03-19T05:43:56;65.17;;;25.10;;
55815;SDS011;41744;52.404;16.942;2023-03-19T05:46:23;79.10;;;25.33;;
55815;SDS011;41744;52.404;16.942;2023-03-19T05:48:49;66.63;;;24.17;;
55815;SDS011;41744;52.404;16.942;2023-03-19T05:51:15;70.43;;;24.67;;
55815;SDS011;41744;52.404;16.942;2023-03-19T05:53:41;77.73;;;26.23;;
55815;SDS011;41744;52.404;16.942;2023-03-19T05:56:07;67.37;;;25.60;;
55815;SDS011;41744;52.404;16.942;2023-03-19T05:58:34;70.70;;;25.77;;
55815;SDS011;41744;52.404;16.942;2023-03-19T06:01:00;65.17;;;24.60;;
55815;SDS011;41744;52.404;16.942;2023-03-19T06:03:26;69.87;;;26.00;;
55815;SDS011;41744;52.404;16.942;2023-03-19T06:05:52;64.57;;;25.23;;
55815;SDS011;41744;52.404;16.942;2023-03-19T06:08:19;75.80;;;25.80;;
55815;SDS011;41744;52.404;16.942;2023-03-19T06:10:45;65.43;;;25.93;;
55815;SDS011;41744;52.404;16.942;2023-03-19T06:13:11;68.77;;;25.27;;
55815;SDS011;41744;52.404;16.942;2023-03-19T06:15:38;74.20;;;25.90;;
55815;SDS011;41744;52.404;16.942;2023-03-19T06:18:04;67.77;;;25.97;;
55815;SDS011;41744;52.404;16.942;2023-03-19T06:20:30;68.97;;;25.27;;
55815;SDS011;41744;52.404;16.942;2023-03-19T06:22:56;67.80;;;25.57;;
55815;SDS011;41744;52.404;16.942;2023-03-19T06:25:22;67.63;;;24.63;;
55815;SDS011;41744;52.404;16.942;2023-03-19T06:27:48;68.30;;;25.33;;
55815;SDS011;41744;52.404;16.942;2023-03-19T06:30:14;70.60;;;25.77;;
55815;SDS011;41744;52.404;16.942;2023-03-19T06:32:40;71.07;;;26.67;;
55815;SDS011;41744;52.404;16.942;2023-03-19T06:35:06;69.47;;;27.93;;
55815;SDS011;41744;52.404;16.942;2023-03-19T06:37:33;68.30;;;26.87;;
55815;SDS011;41744;52.404;16.942;2023-03-19T06:39:59;67.13;;;26.90;;
55815;SDS011;41744;52.404;16.942;2023-03-19T06:42:25;65.20;;;26.47;;
55815;SDS011;41744;52.404;16.942;2023-03-19T06:44:51;70.77;;;26.50;;
55815;SDS011;41744;52.404;16.942;2023-03-19T06:47:17;72.40;;;27.27;;
55815;SDS011;41744;52.404;16.942;2023-03-19T06:49:43;59.83;;;25.60;;
55815;SDS011;41744;52.404;16.942;2023-03-19T06:52:10;68.40;;;26.30;;
55815;SDS011;41744;52.404;16.942;2023-03-19T06:54:36;63.37;;;24.23;;
55815;SDS011;41744;52.404;16.942;2023-03-19T06:57:02;61.07;;;22.90;;
55815;SDS011;41744;52.404;16.942;2023-03-19T06:59:28;57.67;;;22.70;;
55815;SDS011;41744;52.404;16.942;2023-03-19T07:01:54;57.30;;;22.40;;
55815;SDS011;41744;52.404;16.942;2023-03-19T07:04:20;49.60;;;19.90;;
55815;SDS011;41744;52.404;16.942;2023-03-19T07:06:46;47.77;;;21.00;;
55815;SDS011;41744;52.404;16.942;2023-03-19T07:09:12;52.67;;;20.77;;
55815;SDS011;41744;52.404;16.942;2023-03-19T07:11:39;56.73;;;22.57;;
55815;SDS011;41744;52.404;16.942;2023-03-19T07:14:05;47.40;;;20.37;;
55815;SDS011;41744;52.404;16.942;2023-03-19T07:16:31;53.27;;;20.43;;
55815;SDS011;41744;52.404;16.942;2023-03-19T07:18:57;53.90;;;20.37;;
55815;SDS011;41744;52.404;16.942;2023-03-19T07:21:24;52.07;;;20.90;;
55815;SDS011;41744;52.404;16.942;2023-03-19T07:23:50;52.07;;;21.00;;
55815;SDS011;41744;52.404;16.942;2023-03-19T07:26:17;54.23;;;21.40;;
55815;SDS011;41744;52.404;16.942;2023-03-19T07:28:44;52.20;;;21.33;;
55815;SDS011;41744;52.404;16.942;2023-03-19T07:31:10;49.87;;;20.63;;
55815;SDS011;41744;52.404;16.942;2023-03-19T07:33:36;61.30;;;22.13;;
55815;SDS011;41744;52.404;16.942;2023-03-19T07:36:02;54.13;;;21.70;;
55815;SDS011;41744;52.404;16.942;2023-03-19T07:38:28;49.03;;;21.07;;
55815;SDS011;41744;52.404;16.942;2023-03-19T07:40:54;50.97;;;20.97;;
55815;SDS011;41744;52.404;16.942;2023-03-19T07:43:20;51.73;;;21.10;;
55815;SDS011;41744;52.404;16.942;2023-03-19T07:45:49;60.80;;;22.27;;
55815;SDS011;41744;52.404;16.942;2023-03-19T07:48:15;59.10;;;22.67;;
55815;SDS011;41744;52.404;16.942;2023-03-19T07:50:43;55.33;;;21.70;;
55815;SDS011;41744;52.404;16.942;2023-03-19T07:53:09;59.70;;;22.20;;
55815;SDS011;41744;52.404;16.942;2023-03-19T07:55:35;55.40;;;21.90;;
55815;SDS011;41744;52.404;16.942;2023-03-19T07:58:02;56.33;;;22.10;;
55815;SDS011;41744;52.404;16.942;2023-03-19T08:00:28;54.53;;;21.70;;
55815;SDS011;41744;52.404;16.942;2023-03-19T08:02:54;57.83;;;21.93;;
55815;SDS011;41744;52.404;16.942;2023-03-19T08:05:20;47.73;;;20.13;;
55815;SDS011;41744;52.404;16.942;2023-03-19T08:07:47;47.87;;;20.10;;
55815;SDS011;41744;52.404;16.942;2023-03-19T08:10:15;51.60;;;20.98;;
55815;SDS011;41744;52.404;16.942;2023-03-19T08:12:41;47.93;;;19.57;;
55815;SDS011;41744;52.404;16.942;2023-03-19T08:15:08;52.43;;;19.87;;
55815;SDS011;41744;52.404;16.942;2023-03-19T08:17:35;51.55;;;20.15;;
55815;SDS011;41744;52.404;16.942;2023-03-19T08:20:06;44.75;;;19.25;;
55815;SDS011;41744;52.404;16.942;2023-03-19T08:22:36;48.50;;;19.47;;
55815;SDS011;41744;52.404;16.942;2023-03-19T08:25:03;50.23;;;19.83;;
55815;SDS011;41744;52.404;16.942;2023-03-19T08:27:29;42.70;;;18.90;;
55815;SDS011;41744;52.404;16.942;2023-03-19T08:29:56;47.43;;;19.07;;
55815;SDS011;41744;52.404;16.942;2023-03-19T08:32:23;45.53;;;18.93;;
55815;SDS011;41744;52.404;16.942;2023-03-19T08:34:49;44.63;;;19.03;;
55815;SDS011;41744;52.404;16.942;2023-03-19T08:37:15;48.80;;;20.70;;
55815;SDS011;41744;52.404;16.942;2023-03-19T08:39:41;48.70;;;21.10;;
55815;SDS011;41744;52.404;16.942;2023-03-19T08:42:08;44.93;;;19.27;;
55815;SDS011;41744;52.404;16.942;2023-03-19T08:44:34;44.80;;;19.40;;
55815;SDS011;41744;52.404;16.942;2023-03-19T08:47:00;51.97;;;19.40;;
55815;SDS011;41744;52.404;16.942;2023-03-19T08:49:26;47.10;;;19.43;;
55815;SDS011;41744;52.404;16.942;2023-03-19T08:51:52;46.83;;;19.10;;
55815;SDS011;41744;52.404;16.942;2023-03-19T08:54:18;46.33;;;19.57;;
55815;SDS011;41744;52.404;16.942;2023-03-19T08:56:44;49.80;;;20.00;;
55815;SDS011;41744;52.404;16.942;2023-03-19T08:59:10;48.40;;;19.33;;
55815;SDS011;41744;52.404;16.942;2023-03-19T09:01:36;49.43;;;20.13;;
55815;SDS011;41744;52.404;16.942;2023-03-19T09:04:02;45.25;;;19.15;;
55815;SDS011;41744;52.404;16.942;2023-03-19T09:06:28;46.60;;;20.17;;
55815;SDS011;41744;52.404;16.942;2023-03-19T09:08:55;47.03;;;19.53;;
55815;SDS011;41744;52.404;16.942;2023-03-19T09:11:21;46.83;;;19.73;;
55815;SDS011;41744;52.404;16.942;2023-03-19T09:13:47;43.50;;;19.50;;
55815;SDS011;41744;52.404;16.942;2023-03-19T09:16:13;44.10;;;17.50;;
55815;SDS011;41744;52.404;16.942;2023-03-19T09:18:39;37.17;;;16.92;;
55815;SDS011;41744;52.404;16.942;2023-03-19T09:21:06;43.63;;;17.52;;
55815;SDS011;41744;52.404;16.942;2023-03-19T09:23:32;37.90;;;16.63;;
55815;SDS011;41744;52.404;16.942;2023-03-19T09:25:58;48.10;;;18.38;;
55815;SDS011;41744;52.404;16.942;2023-03-19T09:28:24;41.42;;;17.67;;
55815;SDS011;41744;52.404;16.942;2023-03-19T09:30:51;42.00;;;17.38;;
55815;SDS011;41744;52.404;16.942;2023-03-19T09:33:18;45.00;;;16.35;;
55815;SDS011;41744;52.404;16.942;2023-03-19T09:35:50;41.97;;;16.85;;
55815;SDS011;41744;52.404;16.942;2023-03-19T09:38:17;37.05;;;15.90;;
55815;SDS011;41744;52.404;16.942;2023-03-19T09:40:47;35.90;;;15.93;;
55815;SDS011;41744;52.404;16.942;2023-03-19T09:45:52;36.30;;;14.95;;
55815;SDS011;41744;52.404;16.942;2023-03-19T09:48:18;29.83;;;13.52;;
55815;SDS011;41744;52.404;16.942;2023-03-19T09:50:53;44.42;;;16.30;;
55815;SDS011;41744;52.404;16.942;2023-03-19T09:53:23;149.65;;;54.70;;
55815;SDS011;41744;52.404;16.942;2023-03-19T09:55:56;63.35;;;25.60;;
55815;SDS011;41744;52.404;16.942;2023-03-19T09:58:33;38.03;;;16.33;;
55815;SDS011;41744;52.404;16.942;2023-03-19T10:00:59;35.47;;;13.57;;
55815;SDS011;41744;52.404;16.942;2023-03-19T10:16:13;37.03;;;12.85;;
55815;SDS011;41744;52.404;16.942;2023-03-19T10:18:41;29.42;;;12.55;;
55815;SDS011;41744;52.404;16.942;2023-03-19T10:21:14;30.35;;;12.75;;
55815;SDS011;41744;52.404;16.942;2023-03-19T10:26:14;33.10;;;13.75;;
55815;SDS011;41744;52.404;16.942;2023-03-19T10:28:42;27.98;;;13.20;;
55815;SDS011;41744;52.404;16.942;2023-03-19T10:31:24;32.83;;;13.40;;
55815;SDS011;41744;52.404;16.942;2023-03-19T10:36:26;27.50;;;12.82;;
55815;SDS011;41744;52.404;16.942;2023-03-19T10:38:55;29.58;;;12.25;;
55815;SDS011;41744;52.404;16.942;2023-03-19T10:41:37;34.47;;;13.07;;
55815;SDS011;41744;52.404;16.942;2023-03-19T10:44:08;33.05;;;14.13;;
55815;SDS011;41744;52.404;16.942;2023-03-19T10:46:36;30.00;;;13.57;;
55815;SDS011;41744;52.404;16.942;2023-03-19T10:49:02;40.58;;;14.18;;
55815;SDS011;41744;52.404;16.942;2023-03-19T10:51:28;31.48;;;13.80;;
55815;SDS011;41744;52.404;16.942;2023-03-19T10:53:54;31.83;;;13.45;;
55815;SDS011;41744;52.404;16.942;2023-03-19T10:56:21;40.75;;;14.15;;
55815;SDS011;41744;52.404;16.942;2023-03-19T10:58:55;36.17;;;14.60;;
55815;SDS011;41744;52.404;16.942;2023-03-19T11:01:25;35.58;;;14.35;;
55815;SDS011;41744;52.404;16.942;2023-03-19T11:03:54;32.83;;;14.63;;
55815;SDS011;41744;52.404;16.942;2023-03-19T11:09:01;35.97;;;15.10;;
55815;SDS011;41744;52.404;16.942;2023-03-19T11:11:32;40.42;;;16.42;;
55815;SDS011;41744;52.404;16.942;2023-03-19T11:14:11;35.47;;;15.45;;
55815;SDS011;41744;52.404;16.942;2023-03-19T11:16:46;36.40;;;15.63;;
55815;SDS011;41744;52.404;16.942;2023-03-19T11:19:20;34.95;;;14.52;;
55815;SDS011;41744;52.404;16.942;2023-03-19T11:24:30;34.05;;;14.20;;
55815;SDS011;41744;52.404;16.942;2023-03-19T11:26:57;36.85;;;15.65;;
55815;SDS011;41744;52.404;16.942;2023-03-19T11:29:25;38.67;;;13.65;;
55815;SDS011;41744;52.404;16.942;2023-03-19T11:32:04;33.53;;;14.35;;
55815;SDS011;41744;52.404;16.942;2023-03-19T11:34:48;36.72;;;14.45;;
55815;SDS011;41744;52.404;16.942;2023-03-19T11:37:42;37.00;;;15.45;;
55815;SDS011;41744;52.404;16.942;2023-03-19T11:45:35;33.55;;;14.23;;
55815;SDS011;41744;52.404;16.942;2023-03-19T11:48:09;32.80;;;14.43;;
55815;SDS011;41744;52.404;16.942;2023-03-19T11:50:49;33.00;;;13.80;;
55815;SDS011;41744;52.404;16.942;2023-03-19T12:00:55;35.70;;;15.23;;
55815;SDS011;41744;52.404;16.942;2023-03-19T12:05:55;38.65;;;15.18;;
55815;SDS011;41744;52.404;16.942;2023-03-19T12:08:44;38.10;;;16.30;;
55815;SDS011;41744;52.404;16.942;2023-03-19T12:13:53;45.53;;;18.55;;
55815;SDS011;41744;52.404;16.942;2023-03-19T12:16:27;37.90;;;15.88;;
55815;SDS011;41744;52.404;16.942;2023-03-19T12:19:04;38.70;;;15.05;;
55815;SDS011;41744;52.404;16.942;2023-03-19T12:31:57;54.13;;;20.80;;
55815;SDS011;41744;52.404;16.942;2023-03-19T12:39:23;56.97;;;20.73;;
55815;SDS011;41744;52.404;16.942;2023-03-19T12:41:51;56.60;;;22.40;;
55815;SDS011;41744;52.404;16.942;2023-03-19T12:44:21;57.50;;;21.30;;
55815;SDS011;41744;52.404;16.942;2023-03-19T12:46:55;67.20;;;25.20;;
55815;SDS011;41744;52.404;16.942;2023-03-19T12:49:57;54.75;;;23.17;;
55815;SDS011;41744;52.404;16.942;2023-03-19T12:52:22;48.65;;;20.30;;
55815;SDS011;41744;52.404;16.942;2023-03-19T12:54:52;57.83;;;21.85;;
55815;SDS011;41744;52.404;16.942;2023-03-19T12:57:30;53.40;;;21.73;;
55815;SDS011;41744;52.404;16.942;2023-03-19T13:00:06;38.20;;;16.05;;
55815;SDS011;41744;52.404;16.942;2023-03-19T13:05:15;33.53;;;14.68;;
55815;SDS011;41744;52.404;16.942;2023-03-19T13:10:19;37.92;;;15.25;;
55815;SDS011;41744;52.404;16.942;2023-03-19T13:12:46;38.90;;;15.57;;
55815;SDS011;41744;52.404;16.942;2023-03-19T13:22:52;35.65;;;15.02;;
55815;SDS011;41744;52.404;16.942;2023-03-19T13:25:21;33.67;;;14.00;;
55815;SDS011;41744;52.404;16.942;2023-03-19T13:27:52;34.10;;;14.80;;
55815;SDS011;41744;52.404;16.942;2023-03-19T13:30:21;34.88;;;14.98;;
55815;SDS011;41744;52.404;16.942;2023-03-19T13:32:49;34.33;;;14.13;;
55815;SDS011;41744;52.404;16.942;2023-03-19T13:35:26;37.38;;;14.63;;
55815;SDS011;41744;52.404;16.942;2023-03-19T13:37:58;35.50;;;15.43;;
55815;SDS011;41744;52.404;16.942;2023-03-19T13:40:41;35.97;;;14.50;;
55815;SDS011;41744;52.404;16.942;2023-03-19T13:56:18;30.58;;;12.57;;
55815;SDS011;41744;52.404;16.942;2023-03-19T13:58:47;26.75;;;12.20;;
55815;SDS011;41744;52.404;16.942;2023-03-19T14:03:57;29.70;;;13.32;;
55815;SDS011;41744;52.404;16.942;2023-03-19T14:06:34;31.92;;;13.93;;
55815;SDS011;41744;52.404;16.942;2023-03-19T14:09:01;33.20;;;14.13;;
55815;SDS011;41744;52.404;16.942;2023-03-19T14:11:28;32.10;;;13.45;;
55815;SDS011;41744;52.404;16.942;2023-03-19T14:13:59;36.22;;;13.70;;
55815;SDS011;41744;52.404;16.942;2023-03-19T14:16:33;30.33;;;12.93;;
55815;SDS011;41744;52.404;16.942;2023-03-19T14:19:00;37.40;;;14.65;;
55815;SDS011;41744;52.404;16.942;2023-03-19T14:21:31;29.98;;;13.15;;
55815;SDS011;41744;52.404;16.942;2023-03-19T14:24:18;29.10;;;12.70;;
55815;SDS011;41744;52.404;16.942;2023-03-19T14:26:44;32.65;;;12.85;;
55815;SDS011;41744;52.404;16.942;2023-03-19T14:29:12;38.67;;;13.02;;
55815;SDS011;41744;52.404;16.942;2023-03-19T14:31:49;31.05;;;13.48;;
55815;SDS011;41744;52.404;16.942;2023-03-19T14:34:31;32.42;;;12.65;;
55815;SDS011;41744;52.404;16.942;2023-03-19T14:39:37;29.27;;;12.90;;
55815;SDS011;41744;52.404;16.942;2023-03-19T14:57:04;23.75;;;10.75;;
55815;SDS011;41744;52.404;16.942;2023-03-19T14:59:37;26.77;;;10.02;;
55815;SDS011;41744;52.404;16.942;2023-03-19T15:02:16;23.80;;;10.02;;
55815;SDS011;41744;52.404;16.942;2023-03-19T15:04:44;23.33;;;9.82;;
55815;SDS011;41744;52.404;16.942;2023-03-19T15:07:16;25.98;;;11.07;;
55815;SDS011;41744;52.404;16.942;2023-03-19T15:09:43;30.65;;;10.60;;
55815;SDS011;41744;52.404;16.942;2023-03-19T15:17:19;21.95;;;9.90;;
55815;SDS011;41744;52.404;16.942;2023-03-19T15:19:46;31.42;;;10.85;;
55815;SDS011;41744;52.404;16.942;2023-03-19T15:22:13;23.48;;;10.35;;
55815;SDS011;41744;52.404;16.942;2023-03-19T15:24:41;25.20;;;10.52;;
55815;SDS011;41744;52.404;16.942;2023-03-19T15:27:17;23.77;;;10.48;;
55815;SDS011;41744;52.404;16.942;2023-03-19T15:29:43;24.35;;;10.20;;
55815;SDS011;41744;52.404;16.942;2023-03-19T15:32:16;27.05;;;10.85;;
55815;SDS011;41744;52.404;16.942;2023-03-19T15:34:55;25.98;;;10.77;;
55815;SDS011;41744;52.404;16.942;2023-03-19T15:37:21;24.48;;;10.43;;
55815;SDS011;41744;52.404;16.942;2023-03-19T15:39:48;26.35;;;11.02;;
55815;SDS011;41744;52.404;16.942;2023-03-19T15:42:15;27.20;;;11.43;;
55815;SDS011;41744;52.404;16.942;2023-03-19T15:44:43;25.52;;;10.82;;
55815;SDS011;41744;52.404;16.942;2023-03-19T15:47:12;26.48;;;10.38;;
55815;SDS011;41744;52.404;16.942;2023-03-19T15:49:43;27.45;;;11.73;;
55815;SDS011;41744;52.404;16.942;2023-03-19T15:52:13;26.42;;;10.60;;
55815;SDS011;41744;52.404;16.942;2023-03-19T15:54:41;33.35;;;12.38;;
55815;SDS011;41744;52.404;16.942;2023-03-19T15:57:07;34.50;;;12.18;;
55815;SDS011;41744;52.404;16.942;2023-03-19T15:59:34;28.38;;;11.75;;
55815;SDS011;41744;52.404;16.942;2023-03-19T16:02:03;26.83;;;11.45;;
55815;SDS011;41744;52.404;16.942;2023-03-19T16:04:35;33.00;;;11.77;;
55815;SDS011;41744;52.404;16.942;2023-03-19T16:07:01;31.42;;;11.77;;
55815;SDS011;41744;52.404;16.942;2023-03-19T16:11:56;30.10;;;11.88;;
55815;SDS011;41744;52.404;16.942;2023-03-19T16:14:29;29.05;;;11.82;;